sensor_id;sensor_type;location;lat;lon;timestamp;temperature;humidity
38784;DHT22;24531;45.502;12.238;2024-02-21T00:00:53;13.00;99.90
38784;DHT22;24531;45.502;12.238;2024-02-21T00:03:19;13.00;99.90
38784;DHT22;24531;45.502;12.238;2024-02-21T00:05:45;12.90;99.90
38784;DHT22;24531;45.502;12.238;2024-02-21T00:08:10;13.00;99.90
38784;DHT22;24531;45.502;12.238;2024-02-21T00:10:36;12.90;99.90
38784;DHT22;24531;45.502;12.238;2024-02-21T00:13:02;12.90;99.90
38784;DHT22;24531;45.502;12.238;2024-02-21T00:15:28;12.90;99.90
38784;DHT22;24531;45.502;12.238;2024-02-21T00:17:54;12.90;99.90
38784;DHT22;24531;45.502;12.238;2024-02-21T00:20:20;12.90;99.90
38784;DHT22;24531;45.502;12.238;2024-02-21T00:22:45;12.90;99.90
38784;DHT22;24531;45.502;12.238;2024-02-21T00:25:11;12.90;99.90
38784;DHT22;24531;45.502;12.238;2024-02-21T00:27:37;12.90;99.90
38784;DHT22;24531;45.502;12.238;2024-02-21T00:30:04;12.80;99.90
38784;DHT22;24531;45.502;12.238;2024-02-21T00:32:29;12.80;99.90
38784;DHT22;24531;45.502;12.238;2024-02-21T00:34:55;12.80;99.90
38784;DHT22;24531;45.502;12.238;2024-02-21T00:37:21;12.60;99.90
38784;DHT22;24531;45.502;12.238;2024-02-21T00:39:46;12.70;99.90
38784;DHT22;24531;45.502;12.238;2024-02-21T00:42:12;12.70;99.90
38784;DHT22;24531;45.502;12.238;2024-02-21T00:44:37;12.70;99.90
38784;DHT22;24531;45.502;12.238;2024-02-21T00:47:03;12.60;99.90
38784;DHT22;24531;45.502;12.238;2024-02-21T00:49:29;12.60;99.90
38784;DHT22;24531;45.502;12.238;2024-02-21T00:51:54;12.60;99.90
38784;DHT22;24531;45.502;12.238;2024-02-21T00:54:20;12.60;99.90
38784;DHT22;24531;45.502;12.238;2024-02-21T00:56:45;12.60;99.90
38784;DHT22;24531;45.502;12.238;2024-02-21T00:59:11;12.60;99.90
38784;DHT22;24531;45.502;12.238;2024-02-21T01:01:36;12.60;99.90
38784;DHT22;24531;45.502;12.238;2024-02-21T01:04:02;12.60;99.90
38784;DHT22;24531;45.502;12.238;2024-02-21T01:06:28;12.60;99.90
38784;DHT22;24531;45.502;12.238;2024-02-21T01:08:53;12.50;99.90
38784;DHT22;24531;45.502;12.238;2024-02-21T01:11:19;12.50;99.90
38784;DHT22;24531;45.502;12.238;2024-02-21T01:13:44;12.50;99.90
38784;DHT22;24531;45.502;12.238;2024-02-21T01:16:10;12.50;99.90
38784;DHT22;24531;45.502;12.238;2024-02-21T01:18:39;12.50;99.90
38784;DHT22;24531;45.502;12.238;2024-02-21T01:21:05;12.50;99.90
38784;DHT22;24531;45.502;12.238;2024-02-21T01:23:34;12.50;99.90
38784;DHT22;24531;45.502;12.238;2024-02-21T01:26:00;12.50;99.90
38784;DHT22;24531;45.502;12.238;2024-02-21T01:28:25;12.50;99.90
38784;DHT22;24531;45.502;12.238;2024-02-21T01:30:51;12.50;99.90
38784;DHT22;24531;45.502;12.238;2024-02-21T01:33:17;12.50;99.90
38784;DHT22;24531;45.502;12.238;2024-02-21T01:35:43;12.50;99.90
38784;DHT22;24531;45.502;12.238;2024-02-21T01:38:08;12.50;99.90
38784;DHT22;24531;45.502;12.238;2024-02-21T01:40:34;12.40;99.90
38784;DHT22;24531;45.502;12.238;2024-02-21T01:42:59;12.40;99.90
38784;DHT22;24531;45.502;12.238;2024-02-21T01:45:25;12.40;99.90
38784;DHT22;24531;45.502;12.238;2024-02-21T01:47:51;12.40;99.90
38784;DHT22;24531;45.502;12.238;2024-02-21T01:50:17;12.40;99.90
38784;DHT22;24531;45.502;12.238;2024-02-21T01:52:46;12.40;99.90
38784;DHT22;24531;45.502;12.238;2024-02-21T01:55:14;12.30;99.90
38784;DHT22;24531;45.502;12.238;2024-02-21T01:57:41;12.30;99.90
38784;DHT22;24531;45.502;12.238;2024-02-21T02:00:07;12.30;99.90
38784;DHT22;24531;45.502;12.238;2024-02-21T02:02:34;12.20;99.90
38784;DHT22;24531;45.502;12.238;2024-02-21T02:05:00;12.20;99.90
38784;DHT22;24531;45.502;12.238;2024-02-21T02:07:26;12.10;99.90
38784;DHT22;24531;45.502;12.238;2024-02-21T02:09:51;12.10;99.90
38784;DHT22;24531;45.502;12.238;2024-02-21T02:12:17;12.10;99.90
38784;DHT22;24531;45.502;12.238;2024-02-21T02:14:43;12.10;99.90
38784;DHT22;24531;45.502;12.238;2024-02-21T02:17:08;12.10;99.90
38784;DHT22;24531;45.502;12.238;2024-02-21T02:19:35;12.10;99.90
38784;DHT22;24531;45.502;12.238;2024-02-21T02:22:13;12.00;99.90
38784;DHT22;24531;45.502;12.238;2024-02-21T02:24:41;12.00;99.90
38784;DHT22;24531;45.502;12.238;2024-02-21T02:27:07;12.00;99.90
38784;DHT22;24531;45.502;12.238;2024-02-21T02:29:33;11.90;99.90
38784;DHT22;24531;45.502;12.238;2024-02-21T02:31:58;11.90;99.90
38784;DHT22;24531;45.502;12.238;2024-02-21T02:34:24;11.90;99.90
38784;DHT22;24531;45.502;12.238;2024-02-21T02:36:49;12.00;99.90
38784;DHT22;24531;45.502;12.238;2024-02-21T02:39:15;11.90;99.90
38784;DHT22;24531;45.502;12.238;2024-02-21T02:41:41;11.80;99.90
38784;DHT22;24531;45.502;12.238;2024-02-21T02:44:06;11.70;99.90
38784;DHT22;24531;45.502;12.238;2024-02-21T02:46:32;11.70;99.90
38784;DHT22;24531;45.502;12.238;2024-02-21T02:48:57;11.70;99.90
38784;DHT22;24531;45.502;12.238;2024-02-21T02:51:23;11.70;99.90
38784;DHT22;24531;45.502;12.238;2024-02-21T02:53:49;11.70;99.90
38784;DHT22;24531;45.502;12.238;2024-02-21T02:56:17;11.70;99.90
38784;DHT22;24531;45.502;12.238;2024-02-21T02:58:43;11.70;99.90
38784;DHT22;24531;45.502;12.238;2024-02-21T03:01:09;11.70;99.90
38784;DHT22;24531;45.502;12.238;2024-02-21T03:03:35;11.70;99.90
38784;DHT22;24531;45.502;12.238;2024-02-21T03:06:01;11.60;99.90
38784;DHT22;24531;45.502;12.238;2024-02-21T03:08:26;11.60;99.90
38784;DHT22;24531;45.502;12.238;2024-02-21T03:10:52;11.60;99.90
38784;DHT22;24531;45.502;12.238;2024-02-21T03:13:18;11.60;99.90
38784;DHT22;24531;45.502;12.238;2024-02-21T03:15:43;11.60;99.90
38784;DHT22;24531;45.502;12.238;2024-02-21T03:18:09;11.50;99.90
38784;DHT22;24531;45.502;12.238;2024-02-21T03:20:34;11.40;99.90
38784;DHT22;24531;45.502;12.238;2024-02-21T03:23:00;11.30;99.90
38784;DHT22;24531;45.502;12.238;2024-02-21T03:25:25;11.20;99.90
38784;DHT22;24531;45.502;12.238;2024-02-21T03:27:51;11.00;99.90
38784;DHT22;24531;45.502;12.238;2024-02-21T03:30:17;10.90;99.90
38784;DHT22;24531;45.502;12.238;2024-02-21T03:32:42;10.90;99.90
38784;DHT22;24531;45.502;12.238;2024-02-21T03:35:08;10.80;99.90
38784;DHT22;24531;45.502;12.238;2024-02-21T03:37:34;10.80;99.90
38784;DHT22;24531;45.502;12.238;2024-02-21T03:39:59;10.70;99.90
38784;DHT22;24531;45.502;12.238;2024-02-21T03:42:25;10.70;99.90
38784;DHT22;24531;45.502;12.238;2024-02-21T03:44:50;10.70;99.90
38784;DHT22;24531;45.502;12.238;2024-02-21T03:47:16;10.80;99.90
38784;DHT22;24531;45.502;12.238;2024-02-21T03:49:42;10.90;99.90
38784;DHT22;24531;45.502;12.238;2024-02-21T03:52:07;10.90;99.90
38784;DHT22;24531;45.502;12.238;2024-02-21T03:54:34;11.00;99.90
38784;DHT22;24531;45.502;12.238;2024-02-21T03:56:59;11.00;99.90
38784;DHT22;24531;45.502;12.238;2024-02-21T03:59:25;11.00;99.90
38784;DHT22;24531;45.502;12.238;2024-02-21T04:01:54;10.90;99.90
38784;DHT22;24531;45.502;12.238;2024-02-21T04:04:20;10.90;99.90
38784;DHT22;24531;45.502;12.238;2024-02-21T04:06:49;10.80;99.90
38784;DHT22;24531;45.502;12.238;2024-02-21T04:09:15;10.80;99.90
38784;DHT22;24531;45.502;12.238;2024-02-21T04:11:40;10.90;99.90
38784;DHT22;24531;45.502;12.238;2024-02-21T04:14:06;10.90;99.90
38784;DHT22;24531;45.502;12.238;2024-02-21T04:16:32;10.90;99.90
38784;DHT22;24531;45.502;12.238;2024-02-21T04:18:58;10.90;99.90
38784;DHT22;24531;45.502;12.238;2024-02-21T04:21:23;10.80;99.90
38784;DHT22;24531;45.502;12.238;2024-02-21T04:23:49;10.70;99.90
38784;DHT22;24531;45.502;12.238;2024-02-21T04:26:15;10.70;99.90
38784;DHT22;24531;45.502;12.238;2024-02-21T04:28:40;10.50;99.90
38784;DHT22;24531;45.502;12.238;2024-02-21T04:31:06;10.60;99.90
38784;DHT22;24531;45.502;12.238;2024-02-21T04:33:32;10.60;99.90
38784;DHT22;24531;45.502;12.238;2024-02-21T04:35:57;10.60;99.90
38784;DHT22;24531;45.502;12.238;2024-02-21T04:38:24;10.50;99.90
38784;DHT22;24531;45.502;12.238;2024-02-21T04:40:49;10.50;99.90
38784;DHT22;24531;45.502;12.238;2024-02-21T04:43:15;10.40;99.90
38784;DHT22;24531;45.502;12.238;2024-02-21T04:45:41;10.30;99.90
38784;DHT22;24531;45.502;12.238;2024-02-21T04:48:06;10.10;99.90
38784;DHT22;24531;45.502;12.238;2024-02-21T04:50:32;10.10;99.90
38784;DHT22;24531;45.502;12.238;2024-02-21T04:52:58;10.10;99.90
38784;DHT22;24531;45.502;12.238;2024-02-21T04:55:23;10.00;99.90
38784;DHT22;24531;45.502;12.238;2024-02-21T04:57:49;10.00;99.90
38784;DHT22;24531;45.502;12.238;2024-02-21T05:00:15;10.10;99.90
38784;DHT22;24531;45.502;12.238;2024-02-21T05:02:41;10.20;99.90
38784;DHT22;24531;45.502;12.238;2024-02-21T05:05:06;10.30;99.90
38784;DHT22;24531;45.502;12.238;2024-02-21T05:07:32;10.30;99.90
38784;DHT22;24531;45.502;12.238;2024-02-21T05:09:58;10.30;99.90
38784;DHT22;24531;45.502;12.238;2024-02-21T05:12:23;10.20;99.90
38784;DHT22;24531;45.502;12.238;2024-02-21T05:14:49;10.10;99.90
38784;DHT22;24531;45.502;12.238;2024-02-21T05:17:15;10.10;99.90
38784;DHT22;24531;45.502;12.238;2024-02-21T05:19:41;10.00;99.90
38784;DHT22;24531;45.502;12.238;2024-02-21T05:22:06;9.90;99.90
38784;DHT22;24531;45.502;12.238;2024-02-21T05:24:32;9.90;99.90
38784;DHT22;24531;45.502;12.238;2024-02-21T05:26:58;9.80;99.90
38784;DHT22;24531;45.502;12.238;2024-02-21T05:29:23;9.80;99.90
38784;DHT22;24531;45.502;12.238;2024-02-21T05:34:18;9.70;99.90
38784;DHT22;24531;45.502;12.238;2024-02-21T05:36:44;9.60;99.90
38784;DHT22;24531;45.502;12.238;2024-02-21T05:39:10;9.70;99.90
38784;DHT22;24531;45.502;12.238;2024-02-21T05:41:36;9.70;99.90
38784;DHT22;24531;45.502;12.238;2024-02-21T05:44:01;9.60;99.90
38784;DHT22;24531;45.502;12.238;2024-02-21T05:46:27;9.50;99.90
38784;DHT22;24531;45.502;12.238;2024-02-21T05:48:53;9.60;99.90
38784;DHT22;24531;45.502;12.238;2024-02-21T05:51:19;9.60;99.90
38784;DHT22;24531;45.502;12.238;2024-02-21T05:53:44;9.60;99.90
38784;DHT22;24531;45.502;12.238;2024-02-21T05:56:13;9.60;99.90
38784;DHT22;24531;45.502;12.238;2024-02-21T05:58:39;9.70;99.90
38784;DHT22;24531;45.502;12.238;2024-02-21T06:01:05;9.80;99.90
38784;DHT22;24531;45.502;12.238;2024-02-21T06:03:33;9.90;99.90
38784;DHT22;24531;45.502;12.238;2024-02-21T06:05:59;10.10;99.90
38784;DHT22;24531;45.502;12.238;2024-02-21T06:08:25;10.20;99.90
38784;DHT22;24531;45.502;12.238;2024-02-21T06:10:51;10.20;99.90
38784;DHT22;24531;45.502;12.238;2024-02-21T06:13:21;10.20;99.90
38784;DHT22;24531;45.502;12.238;2024-02-21T06:15:47;10.20;99.90
38784;DHT22;24531;45.502;12.238;2024-02-21T06:18:12;10.20;99.90
38784;DHT22;24531;45.502;12.238;2024-02-21T06:20:38;10.10;99.90
38784;DHT22;24531;45.502;12.238;2024-02-21T06:23:06;10.10;99.90
38784;DHT22;24531;45.502;12.238;2024-02-21T06:25:32;10.10;99.90
38784;DHT22;24531;45.502;12.238;2024-02-21T06:27:57;10.10;99.90
38784;DHT22;24531;45.502;12.238;2024-02-21T06:30:23;10.20;99.90
38784;DHT22;24531;45.502;12.238;2024-02-21T06:32:48;10.20;99.90
38784;DHT22;24531;45.502;12.238;2024-02-21T06:35:14;10.30;99.90
38784;DHT22;24531;45.502;12.238;2024-02-21T06:37:39;10.40;99.90
38784;DHT22;24531;45.502;12.238;2024-02-21T06:40:06;10.40;99.90
38784;DHT22;24531;45.502;12.238;2024-02-21T06:42:32;10.40;99.90
38784;DHT22;24531;45.502;12.238;2024-02-21T06:44:57;10.50;99.90
38784;DHT22;24531;45.502;12.238;2024-02-21T06:47:23;10.60;99.90
38784;DHT22;24531;45.502;12.238;2024-02-21T06:49:49;10.70;99.90
38784;DHT22;24531;45.502;12.238;2024-02-21T06:52:17;10.80;99.90
38784;DHT22;24531;45.502;12.238;2024-02-21T06:54:48;11.00;99.90
38784;DHT22;24531;45.502;12.238;2024-02-21T06:57:13;11.10;99.90
38784;DHT22;24531;45.502;12.238;2024-02-21T06:59:42;11.20;99.90
38784;DHT22;24531;45.502;12.238;2024-02-21T07:02:08;11.40;99.90
38784;DHT22;24531;45.502;12.238;2024-02-21T07:04:34;11.60;99.90
38784;DHT22;24531;45.502;12.238;2024-02-21T07:07:00;11.70;99.90
38784;DHT22;24531;45.502;12.238;2024-02-21T07:09:26;12.00;99.90
38784;DHT22;24531;45.502;12.238;2024-02-21T07:11:51;12.30;99.90
38784;DHT22;24531;45.502;12.238;2024-02-21T07:14:18;12.60;99.90
38784;DHT22;24531;45.502;12.238;2024-02-21T07:16:44;12.80;99.90
38784;DHT22;24531;45.502;12.238;2024-02-21T07:19:09;13.10;99.90
38784;DHT22;24531;45.502;12.238;2024-02-21T07:21:35;13.40;99.90
38784;DHT22;24531;45.502;12.238;2024-02-21T07:24:03;13.70;99.90
38784;DHT22;24531;45.502;12.238;2024-02-21T07:26:31;14.00;99.90
38784;DHT22;24531;45.502;12.238;2024-02-21T07:28:56;14.30;99.90
38784;DHT22;24531;45.502;12.238;2024-02-21T07:31:22;14.60;99.90
38784;DHT22;24531;45.502;12.238;2024-02-21T07:33:47;15.00;99.90
38784;DHT22;24531;45.502;12.238;2024-02-21T07:36:15;15.40;99.90
38784;DHT22;24531;45.502;12.238;2024-02-21T07:38:41;15.80;99.90
38784;DHT22;24531;45.502;12.238;2024-02-21T07:41:07;16.10;99.90
38784;DHT22;24531;45.502;12.238;2024-02-21T07:43:33;16.40;99.90
38784;DHT22;24531;45.502;12.238;2024-02-21T07:45:58;16.60;99.90
38784;DHT22;24531;45.502;12.238;2024-02-21T07:48:24;17.00;99.90
38784;DHT22;24531;45.502;12.238;2024-02-21T07:50:51;17.30;99.90
38784;DHT22;24531;45.502;12.238;2024-02-21T07:53:16;17.70;99.90
38784;DHT22;24531;45.502;12.238;2024-02-21T07:55:42;18.00;99.90
38784;DHT22;24531;45.502;12.238;2024-02-21T07:58:07;18.40;99.90
38784;DHT22;24531;45.502;12.238;2024-02-21T08:00:33;18.80;99.90
38784;DHT22;24531;45.502;12.238;2024-02-21T08:02:59;19.10;99.90
38784;DHT22;24531;45.502;12.238;2024-02-21T08:05:24;19.50;99.90
38784;DHT22;24531;45.502;12.238;2024-02-21T08:07:50;19.80;99.90
38784;DHT22;24531;45.502;12.238;2024-02-21T08:10:16;20.10;99.90
38784;DHT22;24531;45.502;12.238;2024-02-21T08:12:41;20.30;99.90
38784;DHT22;24531;45.502;12.238;2024-02-21T08:15:08;20.40;99.90
38784;DHT22;24531;45.502;12.238;2024-02-21T08:17:36;20.70;99.90
38784;DHT22;24531;45.502;12.238;2024-02-21T08:20:02;21.00;99.90
38784;DHT22;24531;45.502;12.238;2024-02-21T08:22:28;21.30;99.90
38784;DHT22;24531;45.502;12.238;2024-02-21T08:24:54;21.50;99.90
38784;DHT22;24531;45.502;12.238;2024-02-21T08:27:19;21.50;99.40
38784;DHT22;24531;45.502;12.238;2024-02-21T08:29:45;20.90;98.70
38784;DHT22;24531;45.502;12.238;2024-02-21T08:32:10;20.10;98.50
38784;DHT22;24531;45.502;12.238;2024-02-21T08:34:36;19.40;98.50
38784;DHT22;24531;45.502;12.238;2024-02-21T08:37:02;18.90;98.40
38784;DHT22;24531;45.502;12.238;2024-02-21T08:39:28;18.60;98.40
38784;DHT22;24531;45.502;12.238;2024-02-21T08:41:56;18.30;98.50
38784;DHT22;24531;45.502;12.238;2024-02-21T08:44:27;18.10;98.50
38784;DHT22;24531;45.502;12.238;2024-02-21T08:46:53;18.00;98.10
38784;DHT22;24531;45.502;12.238;2024-02-21T08:49:18;17.80;98.00
38784;DHT22;24531;45.502;12.238;2024-02-21T08:51:44;17.60;97.90
38784;DHT22;24531;45.502;12.238;2024-02-21T08:54:11;17.50;97.90
38784;DHT22;24531;45.502;12.238;2024-02-21T08:56:36;17.50;97.80
38784;DHT22;24531;45.502;12.238;2024-02-21T08:59:02;17.50;97.60
38784;DHT22;24531;45.502;12.238;2024-02-21T09:01:29;17.50;97.40
38784;DHT22;24531;45.502;12.238;2024-02-21T09:03:54;18.00;97.70
38784;DHT22;24531;45.502;12.238;2024-02-21T09:06:22;18.80;97.60
38784;DHT22;24531;45.502;12.238;2024-02-21T09:08:48;19.50;97.20
38784;DHT22;24531;45.502;12.238;2024-02-21T09:11:13;20.50;97.00
38784;DHT22;24531;45.502;12.238;2024-02-21T09:13:39;21.50;96.40
38784;DHT22;24531;45.502;12.238;2024-02-21T09:16:05;22.50;95.70
38784;DHT22;24531;45.502;12.238;2024-02-21T09:18:31;23.30;94.70
38784;DHT22;24531;45.502;12.238;2024-02-21T09:20:57;23.90;93.60
38784;DHT22;24531;45.502;12.238;2024-02-21T09:23:26;24.50;93.10
38784;DHT22;24531;45.502;12.238;2024-02-21T09:25:51;24.90;92.10
38784;DHT22;24531;45.502;12.238;2024-02-21T09:28:17;25.30;91.30
38784;DHT22;24531;45.502;12.238;2024-02-21T09:30:43;25.60;90.90
38784;DHT22;24531;45.502;12.238;2024-02-21T09:33:08;26.10;90.20
38784;DHT22;24531;45.502;12.238;2024-02-21T09:35:34;26.50;89.20
38784;DHT22;24531;45.502;12.238;2024-02-21T09:38:00;27.00;87.30
38784;DHT22;24531;45.502;12.238;2024-02-21T09:40:26;27.10;85.40
38784;DHT22;24531;45.502;12.238;2024-02-21T09:43:03;26.80;82.90
38784;DHT22;24531;45.502;12.238;2024-02-21T09:45:35;26.10;80.80
38784;DHT22;24531;45.502;12.238;2024-02-21T09:50:46;24.20;81.00
38784;DHT22;24531;45.502;12.238;2024-02-21T09:53:12;23.20;81.20
38784;DHT22;24531;45.502;12.238;2024-02-21T09:55:43;22.50;82.20
38784;DHT22;24531;45.502;12.238;2024-02-21T09:58:09;22.00;82.80
38784;DHT22;24531;45.502;12.238;2024-02-21T10:00:35;21.60;83.00
38784;DHT22;24531;45.502;12.238;2024-02-21T10:03:02;21.30;83.10
38784;DHT22;24531;45.502;12.238;2024-02-21T10:05:36;21.00;83.30
38784;DHT22;24531;45.502;12.238;2024-02-21T10:08:02;20.80;83.40
38784;DHT22;24531;45.502;12.238;2024-02-21T10:10:28;20.60;83.60
38784;DHT22;24531;45.502;12.238;2024-02-21T10:12:55;20.60;83.30
38784;DHT22;24531;45.502;12.238;2024-02-21T10:15:22;20.40;82.90
38784;DHT22;24531;45.502;12.238;2024-02-21T10:17:48;20.30;83.60
38784;DHT22;24531;45.502;12.238;2024-02-21T10:20:14;20.10;83.70
38784;DHT22;24531;45.502;12.238;2024-02-21T10:22:40;20.00;83.90
38784;DHT22;24531;45.502;12.238;2024-02-21T10:25:10;19.90;83.90
38784;DHT22;24531;45.502;12.238;2024-02-21T10:27:37;19.70;84.10
38784;DHT22;24531;45.502;12.238;2024-02-21T10:30:14;19.60;83.90
38784;DHT22;24531;45.502;12.238;2024-02-21T10:32:53;19.60;83.90
38784;DHT22;24531;45.502;12.238;2024-02-21T10:35:32;19.50;83.80
38784;DHT22;24531;45.502;12.238;2024-02-21T10:37:59;19.50;84.00
38784;DHT22;24531;45.502;12.238;2024-02-21T10:40:29;19.40;84.10
38784;DHT22;24531;45.502;12.238;2024-02-21T10:42:57;19.30;83.60
38784;DHT22;24531;45.502;12.238;2024-02-21T10:45:32;19.30;83.80
38784;DHT22;24531;45.502;12.238;2024-02-21T10:48:16;19.20;84.00
38784;DHT22;24531;45.502;12.238;2024-02-21T10:53:49;19.10;84.40
38784;DHT22;24531;45.502;12.238;2024-02-21T10:58:49;19.00;84.70
38784;DHT22;24531;45.502;12.238;2024-02-21T11:01:15;18.90;84.70
38784;DHT22;24531;45.502;12.238;2024-02-21T11:03:44;18.90;84.80
38784;DHT22;24531;45.502;12.238;2024-02-21T11:06:14;19.00;84.90
38784;DHT22;24531;45.502;12.238;2024-02-21T11:08:40;18.90;85.00
38784;DHT22;24531;45.502;12.238;2024-02-21T11:11:06;18.90;85.40
38784;DHT22;24531;45.502;12.238;2024-02-21T11:13:37;18.90;85.20
38784;DHT22;24531;45.502;12.238;2024-02-21T11:16:11;18.90;85.30
38784;DHT22;24531;45.502;12.238;2024-02-21T11:18:39;18.80;85.20
38784;DHT22;24531;45.502;12.238;2024-02-21T11:21:06;18.80;84.80
38784;DHT22;24531;45.502;12.238;2024-02-21T11:23:32;18.70;85.00
38784;DHT22;24531;45.502;12.238;2024-02-21T11:26:08;18.60;85.00
38784;DHT22;24531;45.502;12.238;2024-02-21T11:28:34;18.60;85.20
38784;DHT22;24531;45.502;12.238;2024-02-21T11:31:08;18.50;84.80
38784;DHT22;24531;45.502;12.238;2024-02-21T11:33:34;18.50;84.90
38784;DHT22;24531;45.502;12.238;2024-02-21T11:36:01;18.60;85.20
38784;DHT22;24531;45.502;12.238;2024-02-21T11:38:26;18.60;85.40
38784;DHT22;24531;45.502;12.238;2024-02-21T11:40:52;18.70;85.00
38784;DHT22;24531;45.502;12.238;2024-02-21T11:43:18;18.60;84.90
38784;DHT22;24531;45.502;12.238;2024-02-21T11:45:43;18.60;85.10
38784;DHT22;24531;45.502;12.238;2024-02-21T11:48:09;18.60;85.50
38784;DHT22;24531;45.502;12.238;2024-02-21T11:50:35;18.70;86.00
38784;DHT22;24531;45.502;12.238;2024-02-21T11:53:05;18.70;86.00
38784;DHT22;24531;45.502;12.238;2024-02-21T11:55:31;18.70;85.80
38784;DHT22;24531;45.502;12.238;2024-02-21T11:57:56;18.60;85.80
38784;DHT22;24531;45.502;12.238;2024-02-21T12:00:22;18.70;85.90
38784;DHT22;24531;45.502;12.238;2024-02-21T12:02:50;18.70;85.90
38784;DHT22;24531;45.502;12.238;2024-02-21T12:05:16;18.60;85.70
38784;DHT22;24531;45.502;12.238;2024-02-21T12:07:44;18.70;85.80
38784;DHT22;24531;45.502;12.238;2024-02-21T12:10:11;18.70;85.90
38784;DHT22;24531;45.502;12.238;2024-02-21T12:12:37;18.70;85.60
38784;DHT22;24531;45.502;12.238;2024-02-21T12:15:06;18.70;85.70
38784;DHT22;24531;45.502;12.238;2024-02-21T12:17:36;18.70;85.70
38784;DHT22;24531;45.502;12.238;2024-02-21T12:20:03;18.60;85.80
38784;DHT22;24531;45.502;12.238;2024-02-21T12:22:31;18.60;86.20
38784;DHT22;24531;45.502;12.238;2024-02-21T12:24:58;18.70;86.20
38784;DHT22;24531;45.502;12.238;2024-02-21T12:27:24;18.60;86.20
38784;DHT22;24531;45.502;12.238;2024-02-21T12:29:50;18.50;86.30
38784;DHT22;24531;45.502;12.238;2024-02-21T12:32:16;18.60;86.20
38784;DHT22;24531;45.502;12.238;2024-02-21T12:34:42;18.60;86.40
38784;DHT22;24531;45.502;12.238;2024-02-21T12:37:07;18.60;86.20
38784;DHT22;24531;45.502;12.238;2024-02-21T12:39:33;18.60;86.70
38784;DHT22;24531;45.502;12.238;2024-02-21T12:41:59;18.50;86.30
38784;DHT22;24531;45.502;12.238;2024-02-21T12:44:25;18.40;86.30
38784;DHT22;24531;45.502;12.238;2024-02-21T12:46:50;18.50;86.40
38784;DHT22;24531;45.502;12.238;2024-02-21T12:49:19;18.50;86.30
38784;DHT22;24531;45.502;12.238;2024-02-21T12:51:45;18.50;86.50
38784;DHT22;24531;45.502;12.238;2024-02-21T12:54:13;18.50;86.70
38784;DHT22;24531;45.502;12.238;2024-02-21T12:56:39;18.50;86.90
38784;DHT22;24531;45.502;12.238;2024-02-21T12:59:07;18.50;87.00
38784;DHT22;24531;45.502;12.238;2024-02-21T13:01:36;18.60;87.30
38784;DHT22;24531;45.502;12.238;2024-02-21T13:04:03;18.50;87.10
38784;DHT22;24531;45.502;12.238;2024-02-21T13:06:28;18.50;87.30
38784;DHT22;24531;45.502;12.238;2024-02-21T13:08:54;18.50;87.30
38784;DHT22;24531;45.502;12.238;2024-02-21T13:11:20;18.40;87.30
38784;DHT22;24531;45.502;12.238;2024-02-21T13:13:45;18.40;87.50
38784;DHT22;24531;45.502;12.238;2024-02-21T13:16:11;18.40;87.60
38784;DHT22;24531;45.502;12.238;2024-02-21T13:18:37;18.40;87.70
38784;DHT22;24531;45.502;12.238;2024-02-21T13:21:08;18.30;87.80
38784;DHT22;24531;45.502;12.238;2024-02-21T13:23:33;18.30;87.90
38784;DHT22;24531;45.502;12.238;2024-02-21T13:25:59;18.30;88.00
38784;DHT22;24531;45.502;12.238;2024-02-21T13:28:24;18.30;88.00
38784;DHT22;24531;45.502;12.238;2024-02-21T13:30:50;18.30;88.40
38784;DHT22;24531;45.502;12.238;2024-02-21T13:33:16;18.40;88.10
38784;DHT22;24531;45.502;12.238;2024-02-21T13:35:42;18.40;88.00
38784;DHT22;24531;45.502;12.238;2024-02-21T13:38:07;18.40;87.80
38784;DHT22;24531;45.502;12.238;2024-02-21T13:40:35;18.50;88.00
38784;DHT22;24531;45.502;12.238;2024-02-21T13:43:01;18.50;87.80
38784;DHT22;24531;45.502;12.238;2024-02-21T13:45:27;18.50;87.70
38784;DHT22;24531;45.502;12.238;2024-02-21T13:47:52;18.50;87.50
38784;DHT22;24531;45.502;12.238;2024-02-21T13:50:19;18.50;87.70
38784;DHT22;24531;45.502;12.238;2024-02-21T13:52:45;18.40;87.40
38784;DHT22;24531;45.502;12.238;2024-02-21T13:55:12;18.40;87.40
38784;DHT22;24531;45.502;12.238;2024-02-21T13:57:38;18.40;87.60
38784;DHT22;24531;45.502;12.238;2024-02-21T14:00:04;18.40;87.80
38784;DHT22;24531;45.502;12.238;2024-02-21T14:02:31;18.40;88.00
38784;DHT22;24531;45.502;12.238;2024-02-21T14:04:57;18.40;88.20
38784;DHT22;24531;45.502;12.238;2024-02-21T14:07:22;18.40;88.50
38784;DHT22;24531;45.502;12.238;2024-02-21T14:09:48;18.40;88.30
38784;DHT22;24531;45.502;12.238;2024-02-21T14:12:15;18.30;88.20
38784;DHT22;24531;45.502;12.238;2024-02-21T14:14:43;18.20;88.40
38784;DHT22;24531;45.502;12.238;2024-02-21T14:17:09;18.20;88.20
38784;DHT22;24531;45.502;12.238;2024-02-21T14:19:35;18.10;88.40
38784;DHT22;24531;45.502;12.238;2024-02-21T14:22:01;18.10;88.60
38784;DHT22;24531;45.502;12.238;2024-02-21T14:24:27;18.10;88.90
38784;DHT22;24531;45.502;12.238;2024-02-21T14:26:53;18.00;89.20
38784;DHT22;24531;45.502;12.238;2024-02-21T14:29:20;17.90;89.40
38784;DHT22;24531;45.502;12.238;2024-02-21T14:31:46;17.90;89.70
38784;DHT22;24531;45.502;12.238;2024-02-21T14:34:12;17.90;90.00
38784;DHT22;24531;45.502;12.238;2024-02-21T14:36:38;17.80;90.00
38784;DHT22;24531;45.502;12.238;2024-02-21T14:39:03;17.80;89.70
38784;DHT22;24531;45.502;12.238;2024-02-21T14:41:30;17.70;89.80
38784;DHT22;24531;45.502;12.238;2024-02-21T14:43:56;17.70;90.00
38784;DHT22;24531;45.502;12.238;2024-02-21T14:46:25;17.60;89.80
38784;DHT22;24531;45.502;12.238;2024-02-21T14:48:57;17.60;90.10
38784;DHT22;24531;45.502;12.238;2024-02-21T14:51:22;17.50;89.90
38784;DHT22;24531;45.502;12.238;2024-02-21T14:53:48;17.50;89.50
38784;DHT22;24531;45.502;12.238;2024-02-21T14:56:15;17.40;89.10
38784;DHT22;24531;45.502;12.238;2024-02-21T14:58:41;17.40;88.90
38784;DHT22;24531;45.502;12.238;2024-02-21T15:01:10;18.40;89.90
38784;DHT22;24531;45.502;12.238;2024-02-21T15:03:38;17.40;88.80
38784;DHT22;24531;45.502;12.238;2024-02-21T15:06:04;17.40;88.60
38784;DHT22;24531;45.502;12.238;2024-02-21T15:08:32;17.30;88.90
38784;DHT22;24531;45.502;12.238;2024-02-21T15:11:06;17.60;89.10
38784;DHT22;24531;45.502;12.238;2024-02-21T15:13:33;17.20;89.20
38784;DHT22;24531;45.502;12.238;2024-02-21T15:15:58;17.10;89.20
38784;DHT22;24531;45.502;12.238;2024-02-21T15:18:24;17.10;89.30
38784;DHT22;24531;45.502;12.238;2024-02-21T15:20:50;17.10;89.50
38784;DHT22;24531;45.502;12.238;2024-02-21T15:23:15;17.10;89.60